Terminal Aerodrome Forecast
Issued by NWS St Louis, MO

Home | Current Version | Previous Version | Text Only | Print | Product List | Glossary On
Versions: 1 2 3 4 5 6 7 8 9 10 11 12 13
000
FTUS43 KLSX 040543
TAFCOU
TAF
KCOU 040543Z 0406/0506 13007KT P6SM -RA OVC050
     FM040800 12007KT 5SM -RA OVC015
     FM041400 14005KT 1 1/2SM -RASN OVC008
     FM041700 22005KT P6SM OVC008
     FM042200 26006KT P6SM BKN035
     FM050000 27005KT P6SM SCT090=

USA.gov is the U.S. government's official web portal to all federal, state and local government web resources and services.